Time;durP1;ratioP1;P1;durP2;ratioP2;P2;SDS_P1;SDS_P2;PMS_P1;PMS_P2;Temp;Humidity;BMP_temperature;BMP_pressure;BME280_temperature;BME280_humidity;BME280_pressure;Samples;Min_cycle;Max_cycle;Signal;HPM_P1;HPM_P2
2022/12/02 00:00:05;;;;;;;40.25;18.40;;;;;;;;;;6178341;23;20025;-61
2022/12/02 00:02:32;;;;;;;;;;;;;;;;;;6179878;23;20029;-61
2022/12/02 00:05:02;;;;;;;37.33;16.60;;;;;;;;;;6179255;23;19923;-61
2022/12/02 00:07:36;;;;;;;40.58;18.92;;;;;;;;;;6178110;23;20025;-61
2022/12/02 00:10:23;;;;;;;46.17;19.40;;;;;;;;;;6179006;23;20063;-61
2022/12/02 00:13:01;;;;;;;45.38;20.27;;;;;;;;;;6177015;23;20029;-54
2022/12/02 00:15:41;;;;;;;39.78;18.67;;;;;;;;;;6180553;23;20025;-61
2022/12/02 00:18:15;;;;;;;44.28;20.38;;;;;;;;;;6177792;23;20017;-61
2022/12/02 00:20:55;;;;;;;37.97;19.10;;;;;;;;;;6178111;23;20032;-61
2022/12/02 00:23:30;;;;;;;38.72;19.02;;;;;;;;;;6178869;23;20025;-61
2022/12/02 00:25:57;;;;;;;43.10;19.33;;;;;;;;;;6179606;23;20028;-61
2022/12/02 00:28:24;;;;;;;41.78;18.67;;;;;;;;;;6178852;23;20024;-61
2022/12/02 00:30:57;;;;;;;34.40;17.90;;;;;;;;;;6179710;23;20021;-64
2022/12/02 00:33:24;;;;;;;38.00;19.13;;;;;;;;;;6177296;23;20027;-63
2022/12/02 00:35:58;;;;;;;43.05;19.83;;;;;;;;;;6179011;23;20063;-50
2022/12/02 00:38:26;;;;;;;37.60;18.23;;;;;;;;;;6177883;23;20017;-49
2022/12/02 00:40:53;;;;;;;42.22;18.40;;;;;;;;;;6152848;23;20024;-53
2022/12/02 00:46:30;;;;;;;37.25;16.67;;;;;;;;;;6179676;23;20027;-49
2022/12/02 00:48:58;;;;;;;36.08;17.42;;;;;;;;;;6179968;23;20486;-50
2022/12/02 00:51:33;;;;;;;37.05;18.35;;;;;;;;;;6179814;23;20017;-46
2022/12/02 00:54:00;;;;;;;;;;;;;;;;;;6180195;23;20031;-46
2022/12/02 00:56:27;;;;;;;37.08;17.52;;;;;;;;;;6179832;23;20330;-48
2022/12/02 00:59:00;;;;;;;37.95;17.40;;;;;;;;;;6179422;23;20108;-46
2022/12/02 01:01:28;;;;;;;36.63;17.67;;;;;;;;;;6179943;23;20108;-46
2022/12/02 01:04:02;;;;;;;38.45;18.08;;;;;;;;;;6179696;23;20491;-47
2022/12/02 01:06:29;;;;;;;40.22;18.50;;;;;;;;;;6180270;23;20136;-49
2022/12/02 01:08:56;;;;;;;41.85;18.35;;;;;;;;;;6178504;23;20035;-63
2022/12/02 01:11:30;;;;;;;39.85;19.05;;;;;;;;;;6179041;23;20474;-61
2022/12/02 01:13:58;;;;;;;40.50;19.13;;;;;;;;;;6177715;23;20029;-60
2022/12/02 01:16:25;;;;;;;38.53;18.88;;;;;;;;;;6179382;23;20021;-59
2022/12/02 01:18:59;;;;;;;40.47;18.98;;;;;;;;;;6178253;23;20025;-59
2022/12/02 01:21:32;;;;;;;42.50;20.60;;;;;;;;;;6178223;23;20023;-59
2022/12/02 01:24:06;;;;;;;35.10;17.00;;;;;;;;;;6178369;23;20052;-59
2022/12/02 01:26:33;;;;;;;39.85;18.35;;;;;;;;;;6179137;23;20023;-59
2022/12/02 01:29:01;;;;;;;42.38;17.60;;;;;;;;;;6175940;23;20029;-56
2022/12/02 01:31:34;;;;;;;35.38;16.98;;;;;;;;;;6179072;23;20017;-57
2022/12/02 01:34:02;;;;;;;38.15;17.33;;;;;;;;;;6178713;23;20474;-58
2022/12/02 01:36:36;;;;;;;37.50;16.27;;;;;;;;;;6177587;23;20025;-58
2022/12/02 01:39:03;;;;;;;35.13;16.67;;;;;;;;;;6178756;23;20025;-57
2022/12/02 01:41:30;;;;;;;34.20;17.85;;;;;;;;;;6177625;23;20023;-58
2022/12/02 01:44:05;;;;;;;32.88;15.88;;;;;;;;;;6178898;23;20025;-58
2022/12/02 01:46:32;;;;;;;39.65;16.90;;;;;;;;;;6177309;23;20027;-59
2022/12/02 01:49:06;;;;;;;36.17;17.13;;;;;;;;;;6177327;23;20025;-58
2022/12/02 01:51:33;;;;;;;36.28;17.25;;;;;;;;;;6178053;23;20124;-60
2022/12/02 01:54:00;;;;;;;32.05;15.88;;;;;;;;;;6179043;23;20021;-59
2022/12/02 01:56:33;;;;;;;30.00;15.40;;;;;;;;;;6178426;23;20105;-59
2022/12/02 01:59:00;;;;;;;30.63;15.75;;;;;;;;;;6178126;23;20390;-59
2022/12/02 02:01:35;;;;;;;36.88;17.33;;;;;;;;;;6178012;23;20096;-59
2022/12/02 02:04:02;;;;;;;28.63;15.18;;;;;;;;;;6179177;23;20031;-59
2022/12/02 02:06:32;;;;;;;32.80;16.42;;;;;;;;;;6179239;23;20027;-47
2022/12/02 02:09:06;;;;;;;32.53;15.82;;;;;;;;;;6178433;23;20032;-63
2022/12/02 02:11:34;;;;;;;33.20;16.50;;;;;;;;;;6178539;23;20417;-64
2022/12/02 02:14:09;;;;;;;33.08;15.85;;;;;;;;;;6178708;23;20031;-64
2022/12/02 02:16:37;;;;;;;31.33;16.10;;;;;;;;;;6178110;23;20478;-64
2022/12/02 02:19:06;;;;;;;34.70;16.50;;;;;;;;;;6177475;23;20108;-62
2022/12/02 02:21:54;;;;;;;32.53;15.27;;;;;;;;;;6177333;23;20017;-64
2022/12/02 02:24:23;;;;;;;33.30;16.45;;;;;;;;;;6178895;23;20076;-52
2022/12/02 02:26:56;;;;;;;34.08;15.82;;;;;;;;;;6177524;23;20095;-62
2022/12/02 02:29:24;;;;;;;33.13;16.05;;;;;;;;;;6178176;23;20470;-50
2022/12/02 02:31:57;;;;;;;36.20;17.65;;;;;;;;;;6179126;23;20351;-46
2022/12/02 02:34:25;;;;;;;41.42;17.70;;;;;;;;;;6178067;23;20036;-50
2022/12/02 02:36:59;;;;;;;35.13;17.63;;;;;;;;;;6179630;23;20107;-48
2022/12/02 02:39:26;;;;;;;39.53;17.83;;;;;;;;;;6178834;23;20049;-47
2022/12/02 02:41:54;;;;;;;44.13;17.75;;;;;;;;;;6178100;23;20027;-47
2022/12/02 02:44:28;;;;;;;39.28;18.20;;;;;;;;;;6177779;23;20063;-63
2022/12/02 02:46:56;;;;;;;40.47;17.77;;;;;;;;;;6178995;23;20021;-46
2022/12/02 02:49:31;;;;;;;33.75;15.68;;;;;;;;;;6177600;23;20331;-64
2022/12/02 02:51:58;;;;;;;38.33;17.48;;;;;;;;;;6178171;23;20025;-64
2022/12/02 02:54:25;;;;;;;39.97;16.63;;;;;;;;;;6177864;23;20029;-64
2022/12/02 02:56:58;;;;;;;34.28;16.20;;;;;;;;;;6178355;23;20029;-64
2022/12/02 02:59:25;;;;;;;38.22;16.95;;;;;;;;;;6178595;23;20040;-64
2022/12/02 03:02:00;;;;;;;38.75;15.98;;;;;;;;;;6177496;23;20123;-64
2022/12/02 03:04:28;;;;;;;37.00;15.45;;;;;;;;;;6178662;23;20029;-56
2022/12/02 03:07:02;;;;;;;34.33;16.10;;;;;;;;;;6179026;23;20027;-63
2022/12/02 03:09:29;;;;;;;40.00;16.88;;;;;;;;;;6178321;23;20032;-63
2022/12/02 03:12:03;;;;;;;36.63;16.42;;;;;;;;;;6179002;23;20097;-63
2022/12/02 03:14:30;;;;;;;;;;;;;;;;;;6179303;23;20401;-62
2022/12/02 03:16:59;;;;;;;32.30;15.38;;;;;;;;;;6178386;23;20209;-62
2022/12/02 03:19:47;;;;;;;40.63;16.50;;;;;;;;;;6177828;23;20025;-62
2022/12/02 03:22:21;;;;;;;37.05;16.35;;;;;;;;;;6178632;23;20362;-61
2022/12/02 03:24:56;;;;;;;43.15;17.08;;;;;;;;;;6178291;23;20021;-64
2022/12/02 03:27:23;;;;;;;42.95;16.23;;;;;;;;;;6178874;23;20028;-55
2022/12/02 03:29:50;;;;;;;37.15;15.18;;;;;;;;;;6178281;23;20021;-56
2022/12/02 03:32:25;;;;;;;37.17;15.25;;;;;;;;;;6177720;23;20025;-57
2022/12/02 03:34:52;;;;;;;34.67;15.82;;;;;;;;;;6178188;23;20060;-57
2022/12/02 03:37:27;;;;;;;40.30;16.10;;;;;;;;;;6180870;23;20130;-56
2022/12/02 03:39:54;;;;;;;;;;;;;;;;;;6180520;23;20025;-51
2022/12/02 03:42:21;;;;;;;37.30;16.30;;;;;;;;;;6180240;23;19923;-49
2022/12/02 03:44:55;;;;;;;46.60;17.25;;;;;;;;;;6179564;23;20087;-63
2022/12/02 03:47:23;;;;;;;39.00;16.88;;;;;;;;;;6180417;23;20028;-62
2022/12/02 03:49:57;;;;;;;37.72;16.65;;;;;;;;;;6179611;23;20048;-63
2022/12/02 03:52:24;;;;;;;40.42;17.98;;;;;;;;;;6180460;23;20084;-62
2022/12/02 03:54:51;;;;;;;41.90;16.45;;;;;;;;;;6178727;23;20023;-62
2022/12/02 03:57:26;;;;;;;40.78;17.17;;;;;;;;;;6181229;23;20021;-64
2022/12/02 03:59:53;;;;;;;40.42;16.13;;;;;;;;;;6180263;23;20081;-59
2022/12/02 04:02:20;;;;;;;45.33;18.25;;;;;;;;;;6179762;23;20451;-62
2022/12/02 04:04:55;;;;;;;43.45;17.33;;;;;;;;;;6178100;23;20021;-47
2022/12/02 04:07:22;;;;;;;41.42;16.95;;;;;;;;;;6180139;23;20031;-46
2022/12/02 04:09:55;;;;;;;42.85;17.55;;;;;;;;;;6179888;23;20029;-48
2022/12/02 04:12:23;;;;;;;43.97;18.05;;;;;;;;;;6179918;23;20104;-48
2022/12/02 04:14:50;;;;;;;42.53;17.48;;;;;;;;;;6179854;23;20021;-46
2022/12/02 04:17:23;;;;;;;40.58;17.75;;;;;;;;;;6177572;23;20021;-49
2022/12/02 04:19:57;;;;;;;37.83;16.95;;;;;;;;;;6178947;23;20498;-62
2022/12/02 04:22:37;;;;;;;40.65;17.98;;;;;;;;;;6179247;23;20017;-59
2022/12/02 04:25:04;;;;;;;44.05;17.85;;;;;;;;;;6179459;23;20028;-59
2022/12/02 04:27:39;;;;;;;43.85;18.88;;;;;;;;;;6179040;23;20017;-58
2022/12/02 04:30:06;;;;;;;44.42;19.20;;;;;;;;;;6179205;23;20100;-59
2022/12/02 04:32:33;;;;;;;40.58;17.85;;;;;;;;;;6178288;23;20027;-57
2022/12/02 04:35:14;;;;;;;41.33;18.08;;;;;;;;;;6179689;23;20100;-57
2022/12/02 04:37:41;;;;;;;40.10;17.25;;;;;;;;;;6178754;23;20328;-49
2022/12/02 04:40:16;;;;;;;40.95;17.38;;;;;;;;;;6179597;23;20467;-62
2022/12/02 04:42:43;;;;;;;37.17;16.88;;;;;;;;;;6176848;23;20021;-62
2022/12/02 04:45:10;;;;;;;44.15;17.67;;;;;;;;;;6177737;23;20848;-63
2022/12/02 04:47:44;;;;;;;33.30;16.58;;;;;;;;;;6179515;23;20021;-61
2022/12/02 04:50:12;;;;;;;39.22;16.73;;;;;;;;;;6179586;23;20065;-62
2022/12/02 04:52:45;;;;;;;38.33;17.73;;;;;;;;;;6178113;23;20024;-62
2022/12/02 04:55:13;;;;;;;39.38;18.33;;;;;;;;;;6177307;23;20489;-62
2022/12/02 04:57:40;;;;;;;42.70;18.95;;;;;;;;;;6179882;23;20047;-59
2022/12/02 05:00:14;;;;;;;38.20;17.58;;;;;;;;;;6178613;23;20025;-50
2022/12/02 05:02:41;;;;;;;40.97;18.15;;;;;;;;;;6178509;23;20108;-59
2022/12/02 05:05:15;;;;;;;38.45;16.95;;;;;;;;;;6179274;23;20021;-60
2022/12/02 05:07:48;;;;;;;40.03;18.77;;;;;;;;;;6180596;23;20043;-59
2022/12/02 05:10:23;;;;;;;41.25;18.20;;;;;;;;;;6178263;23;20025;-59
2022/12/02 05:12:50;;;;;;;36.10;16.80;;;;;;;;;;6179851;23;20021;-59
2022/12/02 05:15:19;;;;;;;39.03;17.65;;;;;;;;;;6179974;23;20336;-59
2022/12/02 05:17:53;;;;;;;41.83;19.15;;;;;;;;;;6176935;23;20321;-47
2022/12/02 05:20:20;;;;;;;39.85;18.58;;;;;;;;;;6177532;23;20028;-50
2022/12/02 05:22:53;;;;;;;39.83;18.52;;;;;;;;;;6177458;23;20473;-52
2022/12/02 05:25:21;;;;;;;42.78;18.10;;;;;;;;;;6178186;23;20070;-52
2022/12/02 05:27:48;;;;;;;42.42;19.90;;;;;;;;;;6177474;23;20648;-53
2022/12/02 05:30:21;;;;;;;43.95;18.20;;;;;;;;;;6177137;23;20055;-53
2022/12/02 05:32:49;;;;;;;42.75;18.60;;;;;;;;;;6177842;23;20104;-51
2022/12/02 05:35:23;;;;;;;44.03;18.83;;;;;;;;;;6175029;23;20021;-54
2022/12/02 05:37:50;;;;;;;41.65;19.55;;;;;;;;;;6177714;23;20025;-59
2022/12/02 05:40:17;;;;;;;47.17;19.52;;;;;;;;;;6173489;23;20024;-51
2022/12/02 05:42:50;;;;;;;47.22;18.83;;;;;;;;;;6178078;23;20032;-49
2022/12/02 05:45:19;;;;;;;58.67;19.90;;;;;;;;;;6172872;23;20520;-50
2022/12/02 05:47:48;;;;;;;54.65;19.83;;;;;;;;;;6173478;23;20100;-47
2022/12/02 05:50:23;;;;;;;50.08;20.48;;;;;;;;;;6175078;23;20364;-50
2022/12/02 05:52:51;;;;;;;47.08;19.35;;;;;;;;;;6176539;23;20108;-46
2022/12/02 05:55:25;;;;;;;46.90;19.80;;;;;;;;;;6173126;23;20040;-61
2022/12/02 05:57:54;;;;;;;44.20;18.85;;;;;;;;;;6150935;23;20103;-62
2022/12/02 06:00:28;;;;;;;49.63;19.17;;;;;;;;;;6178698;23;20045;-62
2022/12/02 06:02:57;;;;;;;44.33;18.83;;;;;;;;;;6177880;23;20063;-62
2022/12/02 06:05:37;;;;;;;50.45;19.27;;;;;;;;;;6178484;23;20031;-62
2022/12/02 06:08:24;;;;;;;52.88;18.08;;;;;;;;;;6178334;23;20550;-63
2022/12/02 06:11:15;;;;;;;53.92;18.58;;;;;;;;;;6178762;23;20493;-62
2022/12/02 06:13:43;;;;;;;50.35;18.67;;;;;;;;;;6177612;23;20075;-64
2022/12/02 06:16:28;;;;;;;46.40;18.85;;;;;;;;;;6178940;23;20021;-57
2022/12/02 06:18:55;;;;;;;41.55;18.17;;;;;;;;;;6152628;23;20095;-54
2022/12/02 06:21:35;;;;;;;43.13;18.98;;;;;;;;;;6179118;23;20480;-51
2022/12/02 06:24:02;;;;;;;40.58;18.70;;;;;;;;;;6177478;23;20071;-51
2022/12/02 06:26:37;;;;;;;32.75;17.00;;;;;;;;;;6179782;23;20382;-48
2022/12/02 06:29:04;;;;;;;37.03;16.70;;;;;;;;;;6179167;23;20025;-50
2022/12/02 06:31:36;;;;;;;31.80;16.38;;;;;;;;;;6178341;23;20027;-51
2022/12/02 06:34:33;;;;;;;34.25;17.35;;;;;;;;;;6176705;23;20418;-64
2022/12/02 06:37:12;;;;;;;32.30;15.55;;;;;;;;;;6169670;23;20366;-62
2022/12/02 06:39:48;;;;;;;37.47;18.17;;;;;;;;;;6178258;23;20093;-62
2022/12/02 06:42:41;;;;;;;26.20;15.00;;;;;;;;;;6177683;23;20021;-62
2022/12/02 06:45:12;;;;;;;31.98;16.48;;;;;;;;;;6177550;23;20064;-62
2022/12/02 06:48:00;;;;;;;31.88;16.50;;;;;;;;;;6179370;23;20422;-62
2022/12/02 06:50:27;;;;;;;27.08;14.82;;;;;;;;;;6178376;23;20096;-62
2022/12/02 06:53:17;;;;;;;26.98;14.15;;;;;;;;;;6178291;23;20475;-52
2022/12/02 06:55:46;;;;;;;24.30;13.50;;;;;;;;;;6178655;23;20036;-60
2022/12/02 06:58:28;;;;;;;23.73;13.43;;;;;;;;;;6178365;23;20409;-61
2022/12/02 07:01:02;;;;;;;22.02;12.98;;;;;;;;;;6178340;23;20107;-61
2022/12/02 07:03:37;;;;;;;21.38;12.52;;;;;;;;;;6179158;23;20390;-61
2022/12/02 07:06:24;;;;;;;20.02;11.23;;;;;;;;;;6178282;23;20027;-61
2022/12/02 07:09:00;;;;;;;21.65;11.10;;;;;;;;;;6178749;23;20024;-61
2022/12/02 07:11:50;;;;;;;20.15;11.02;;;;;;;;;;6181611;23;20025;-60
2022/12/02 07:14:27;;;;;;;17.42;10.32;;;;;;;;;;6178973;23;20027;-49
2022/12/02 07:17:13;;;;;;;16.23;10.10;;;;;;;;;;6181678;23;20025;-55
2022/12/02 07:19:42;;;;;;;20.48;9.65;;;;;;;;;;6180807;23;20112;-52
2022/12/02 07:22:26;;;;;;;20.73;10.10;;;;;;;;;;6154581;23;20029;-53
2022/12/02 07:24:56;;;;;;;21.48;11.35;;;;;;;;;;6180905;23;20031;-53
2022/12/02 07:27:33;;;;;;;19.77;11.57;;;;;;;;;;6180932;23;20056;-49
2022/12/02 07:30:00;;;;;;;19.35;11.13;;;;;;;;;;6180310;23;20320;-58
2022/12/02 07:32:27;;;;;;;;;;;;;;;;;;6181239;23;20033;-51
2022/12/02 07:35:02;;;;;;;18.65;10.30;;;;;;;;;;6180762;23;20002;-62
2022/12/02 07:37:29;;;;;;;19.95;11.10;;;;;;;;;;6180615;23;20104;-62
2022/12/02 07:40:03;;;;;;;20.02;11.70;;;;;;;;;;6180938;23;20021;-63
2022/12/02 07:42:30;;;;;;;17.90;10.63;;;;;;;;;;6179765;23;20023;-63
2022/12/02 07:44:57;;;;;;;19.35;11.35;;;;;;;;;;6179706;23;20025;-62
2022/12/02 07:47:31;;;;;;;19.27;10.93;;;;;;;;;;6178588;23;20025;-62
2022/12/02 07:49:58;;;;;;;18.67;10.38;;;;;;;;;;6179749;23;20017;-58
2022/12/02 07:52:25;;;;;;;20.77;11.40;;;;;;;;;;6179267;23;20607;-63
2022/12/02 07:55:00;;;;;;;20.17;11.57;;;;;;;;;;6179633;23;20031;-64
2022/12/02 07:57:27;;;;;;;22.88;11.27;;;;;;;;;;6180640;23;20025;-63
2022/12/02 08:00:02;;;;;;;20.35;11.75;;;;;;;;;;6178249;23;20354;-64
2022/12/02 08:02:29;;;;;;;22.10;11.82;;;;;;;;;;6180437;23;20103;-64
2022/12/02 08:04:56;;;;;;;23.67;12.55;;;;;;;;;;6179769;23;20029;-64
2022/12/02 08:07:31;;;;;;;20.90;11.32;;;;;;;;;;6180740;23;20108;-61
2022/12/02 08:09:58;;;;;;;22.75;11.63;;;;;;;;;;6179705;23;20598;-59
2022/12/02 08:12:25;;;;;;;18.95;10.32;;;;;;;;;;6180564;23;20103;-62
2022/12/02 08:14:59;;;;;;;20.10;11.13;;;;;;;;;;6178888;23;20017;-64
2022/12/02 08:17:26;;;;;;;19.38;11.23;;;;;;;;;;6177146;23;20104;-63
2022/12/02 08:20:13;;;;;;;19.80;10.88;;;;;;;;;;6179194;23;20477;-62
2022/12/02 08:22:47;;;;;;;21.03;10.77;;;;;;;;;;6179444;23;20104;-62
2022/12/02 08:25:21;;;;;;;18.70;10.57;;;;;;;;;;6179584;23;20342;-63
2022/12/02 08:27:49;;;;;;;18.80;10.48;;;;;;;;;;6179620;23;20293;-64
2022/12/02 08:30:16;;;;;;;17.50;10.20;;;;;;;;;;6179196;23;20414;-45
2022/12/02 08:32:50;;;;;;;18.50;9.55;;;;;;;;;;6178465;23;20021;-48
2022/12/02 08:35:17;;;;;;;18.33;10.00;;;;;;;;;;6179895;23;20021;-47
2022/12/02 08:37:50;;;;;;;16.33;10.25;;;;;;;;;;6179604;23;20036;-46
2022/12/02 08:40:18;;;;;;;17.08;10.35;;;;;;;;;;6180255;23;20025;-50
2022/12/02 08:42:45;;;;;;;19.70;10.77;;;;;;;;;;6180343;23;20125;-51
2022/12/02 08:45:19;;;;;;;17.63;9.55;;;;;;;;;;6178740;23;20060;-50
2022/12/02 08:47:46;;;;;;;16.67;9.10;;;;;;;;;;6179554;23;20100;-58
2022/12/02 08:50:21;;;;;;;15.95;9.77;;;;;;;;;;6179603;23;20025;-61
2022/12/02 08:52:48;;;;;;;17.35;10.00;;;;;;;;;;6178917;23;20253;-61
2022/12/02 08:55:22;;;;;;;16.08;9.57;;;;;;;;;;6179942;23;20083;-61
2022/12/02 08:57:56;;;;;;;17.05;8.40;;;;;;;;;;6179905;23;20021;-61
2022/12/02 09:00:24;;;;;;;15.90;9.82;;;;;;;;;;6178835;23;20025;-61
2022/12/02 09:03:05;;;;;;;15.35;8.43;;;;;;;;;;6178414;23;20027;-61
2022/12/02 09:05:32;;;;;;;14.70;8.95;;;;;;;;;;6179048;23;20048;-50
2022/12/02 09:08:07;;;;;;;13.35;8.20;;;;;;;;;;6179997;23;20017;-62
2022/12/02 09:10:34;;;;;;;14.10;8.88;;;;;;;;;;6180045;23;20049;-63
2022/12/02 09:13:01;;;;;;;11.43;7.28;;;;;;;;;;6179641;23;20031;-62
2022/12/02 09:15:36;;;;;;;15.38;9.10;;;;;;;;;;6178536;23;20080;-63
2022/12/02 09:18:03;;;;;;;16.02;8.93;;;;;;;;;;6179661;23;20060;-62
2022/12/02 09:20:35;;;;;;;15.20;8.43;;;;;;;;;;6179148;23;20017;-62
2022/12/02 09:23:09;;;;;;;12.40;7.80;;;;;;;;;;6179694;23;20021;-62
2022/12/02 09:25:36;;;;;;;14.60;8.57;;;;;;;;;;6179658;23;20031;-59
2022/12/02 09:28:10;;;;;;;14.88;8.48;;;;;;;;;;6179609;23;20053;-55
2022/12/02 09:30:37;;;;;;;15.27;8.63;;;;;;;;;;6179034;23;20060;-55
2022/12/02 09:33:04;;;;;;;16.70;8.77;;;;;;;;;;6177805;23;20021;-56
2022/12/02 09:35:38;;;;;;;12.05;7.78;;;;;;;;;;6177773;23;20548;-57
2022/12/02 09:38:05;;;;;;;20.13;8.57;;;;;;;;;;6178699;23;20048;-54
2022/12/02 09:40:39;;;;;;;15.65;9.10;;;;;;;;;;6178842;23;20351;-57
2022/12/02 09:43:06;;;;;;;13.55;8.77;;;;;;;;;;6179186;23;20579;-52
2022/12/02 09:45:33;;;;;;;21.88;9.30;;;;;;;;;;6178453;23;20419;-52
2022/12/02 09:48:08;;;;;;;15.00;8.73;;;;;;;;;;6154617;23;20095;-55
2022/12/02 09:50:35;;;;;;;17.38;9.48;;;;;;;;;;6177626;23;20759;-58
2022/12/02 09:53:04;;;;;;;14.52;8.57;;;;;;;;;;6177963;23;20100;-57
2022/12/02 09:55:38;;;;;;;15.15;8.25;;;;;;;;;;6178262;23;20017;-55
2022/12/02 09:58:14;;;;;;;15.18;7.78;;;;;;;;;;6178465;23;20092;-56
2022/12/02 10:00:50;;;;;;;14.23;7.95;;;;;;;;;;6178369;23;20056;-56
2022/12/02 10:03:19;;;;;;;13.50;8.00;;;;;;;;;;6179467;23;20027;-64
2022/12/02 10:05:54;;;;;;;12.80;8.23;;;;;;;;;;6177453;23;20032;-62
2022/12/02 10:08:23;;;;;;;14.30;8.57;;;;;;;;;;6178933;23;20029;-63
2022/12/02 10:10:52;;;;;;;15.07;8.48;;;;;;;;;;6178659;23;20449;-62
2022/12/02 10:13:26;;;;;;;17.67;8.93;;;;;;;;;;6178282;23;20025;-62
2022/12/02 10:15:54;;;;;;;13.25;8.65;;;;;;;;;;6177353;23;20025;-62
2022/12/02 10:18:23;;;;;;;14.25;8.52;;;;;;;;;;6178945;23;20025;-63
2022/12/02 10:21:12;;;;;;;12.30;8.10;;;;;;;;;;6176840;23;20025;-57
2022/12/02 10:24:08;;;;;;;15.45;8.63;;;;;;;;;;6180213;23;20103;-61
2022/12/02 10:26:42;;;;;;;15.20;7.88;;;;;;;;;;6178912;23;20025;-64
2022/12/02 10:29:27;;;;;;;14.30;8.00;;;;;;;;;;6179532;23;20017;-64
2022/12/02 10:31:59;;;;;;;12.48;8.13;;;;;;;;;;6179088;23;20037;-64
2022/12/02 10:34:34;;;;;;;14.25;8.57;;;;;;;;;;6177961;23;20112;-65
2022/12/02 10:37:17;;;;;;;13.68;8.82;;;;;;;;;;6179927;23;20021;-64
2022/12/02 10:40:07;;;;;;;14.73;8.40;;;;;;;;;;6178235;23;20396;-62
2022/12/02 10:42:34;;;;;;;13.15;8.45;;;;;;;;;;6178062;23;20177;-61
2022/12/02 10:45:18;;;;;;;12.73;7.82;;;;;;;;;;6180178;23;20028;-58
2022/12/02 10:47:46;;;;;;;13.50;7.50;;;;;;;;;;6179241;23;20107;-57
2022/12/02 10:50:23;;;;;;;11.98;7.80;;;;;;;;;;6179895;23;20021;-59
2022/12/02 10:52:56;;;;;;;12.55;7.82;;;;;;;;;;6180885;23;20021;-59
2022/12/02 10:55:29;;;;;;;16.10;7.30;;;;;;;;;;6179436;23;20441;-59
2022/12/02 10:57:57;;;;;;;;;;;;;;;;;;6181056;23;20029;-59
2022/12/02 11:00:31;;;;;;;10.68;6.38;;;;;;;;;;6180626;23;19927;-59
2022/12/02 11:02:59;;;;;;;10.05;6.28;;;;;;;;;;6180614;23;20032;-61
2022/12/02 11:05:28;;;;;;;10.55;6.65;;;;;;;;;;6179745;23;20027;-61
2022/12/02 11:08:02;;;;;;;10.18;5.68;;;;;;;;;;6180687;23;20063;-61
2022/12/02 11:10:40;;;;;;;9.02;5.88;;;;;;;;;;6179720;23;20567;-61
2022/12/02 11:13:14;;;;;;;9.35;5.68;;;;;;;;;;6179360;23;20028;-61
2022/12/02 11:15:48;;;;;;;9.55;5.75;;;;;;;;;;6179764;23;20054;-61
2022/12/02 11:18:24;;;;;;;7.65;5.45;;;;;;;;;;6180033;23;20052;-54
2022/12/02 11:21:01;;;;;;;9.50;5.85;;;;;;;;;;6179746;23;20100;-63
2022/12/02 11:23:41;;;;;;;9.18;5.97;;;;;;;;;;6180978;23;20025;-58
2022/12/02 11:26:12;;;;;;;7.20;5.00;;;;;;;;;;6179659;23;20025;-58
2022/12/02 11:28:46;;;;;;;7.38;5.22;;;;;;;;;;6180963;23;20025;-56
2022/12/02 11:31:13;;;;;;;;;;;;;;;;;;6181363;23;20239;-58
2022/12/02 11:33:43;;;;;;;7.50;5.22;;;;;;;;;;6180435;23;19916;-57
2022/12/02 11:36:23;;;;;;;8.23;5.75;;;;;;;;;;6180964;23;20107;-59
2022/12/02 11:38:50;;;;;;;7.40;5.30;;;;;;;;;;6181178;23;20025;-59
2022/12/02 11:41:25;;;;;;;9.15;5.90;;;;;;;;;;6179047;23;20103;-57
2022/12/02 11:43:54;;;;;;;8.10;5.35;;;;;;;;;;6180725;23;20027;-55
2022/12/02 11:46:54;;;;;;;6.70;4.70;;;;;;;;;;6179556;23;20044;-56
2022/12/02 11:49:22;;;;;;;8.90;5.05;;;;;;;;;;6176685;23;20072;-56
2022/12/02 11:52:22;;;;;;;6.57;4.65;;;;;;;;;;6181150;23;20108;-55
2022/12/02 11:54:56;;;;;;;6.72;4.53;;;;;;;;;;6175638;23;20035;-55
2022/12/02 11:57:31;;;;;;;7.20;4.70;;;;;;;;;;6179935;23;20024;-54
2022/12/02 11:59:58;;;;;;;6.90;4.53;;;;;;;;;;6180341;23;20021;-65
2022/12/02 12:02:32;;;;;;;7.13;4.85;;;;;;;;;;6179831;23;20021;-65
2022/12/02 12:05:03;;;;;;;5.55;3.85;;;;;;;;;;6178783;23;20024;-65
2022/12/02 12:07:59;;;;;;;7.85;4.75;;;;;;;;;;6179385;23;20091;-65
2022/12/02 12:10:40;;;;;;;6.22;4.20;;;;;;;;;;6159635;23;20505;-65
2022/12/02 12:13:14;;;;;;;6.85;4.47;;;;;;;;;;6179789;23;20021;-64
2022/12/02 12:15:52;;;;;;;6.78;4.30;;;;;;;;;;6179957;23;20052;-57
2022/12/02 12:18:37;;;;;;;6.63;4.63;;;;;;;;;;6179376;23;20097;-54
2022/12/02 12:21:41;;;;;;;7.95;4.43;;;;;;;;;;6178404;23;20071;-59
2022/12/02 12:24:18;;;;;;;6.65;4.35;;;;;;;;;;6179896;23;20092;-59
2022/12/02 12:26:53;;;;;;;;;;;;;;;;;;6179266;23;20043;-58
2022/12/02 12:29:39;;;;;;;8.32;4.93;;;;;;;;;;6179865;23;20185;-59
2022/12/02 12:32:13;;;;;;;7.22;4.38;;;;;;;;;;6179588;23;20031;-58
2022/12/02 12:34:40;;;;;;;;;;;;;;;;;;6179764;23;20021;-61
2022/12/02 12:37:08;;;;;;;7.38;4.80;;;;;;;;;;6179606;23;19948;-60
2022/12/02 12:39:41;;;;;;;7.43;4.55;;;;;;;;;;6180557;23;20092;-59
2022/12/02 12:42:09;;;;;;;6.30;4.57;;;;;;;;;;6177891;23;20025;-60
2022/12/02 12:44:36;;;;;;;7.95;5.03;;;;;;;;;;6179285;23;20021;-59
2022/12/02 12:47:09;;;;;;;6.97;4.63;;;;;;;;;;6179031;23;20021;-59
2022/12/02 12:49:37;;;;;;;7.57;5.32;;;;;;;;;;6178773;23;20039;-59
2022/12/02 12:52:11;;;;;;;6.82;4.65;;;;;;;;;;6178556;23;20022;-59
2022/12/02 12:54:38;;;;;;;7.88;5.45;;;;;;;;;;6180086;23;20101;-65
2022/12/02 12:57:05;;;;;;;8.98;5.30;;;;;;;;;;6179460;23;20031;-53
2022/12/02 12:59:39;;;;;;;6.35;4.43;;;;;;;;;;6178529;23;20086;-52
2022/12/02 13:02:06;;;;;;;7.30;4.80;;;;;;;;;;6179442;23;20092;-57
2022/12/02 13:04:33;;;;;;;8.20;4.90;;;;;;;;;;6178084;23;20027;-56
2022/12/02 13:07:07;;;;;;;7.68;5.28;;;;;;;;;;6178916;23;20346;-56
2022/12/02 13:09:34;;;;;;;7.40;5.40;;;;;;;;;;6178724;23;20100;-57
2022/12/02 13:12:08;;;;;;;8.27;5.00;;;;;;;;;;6178545;23;20063;-63
2022/12/02 13:14:39;;;;;;;7.38;5.13;;;;;;;;;;6178576;23;20027;-61
2022/12/02 13:17:07;;;;;;;6.93;5.25;;;;;;;;;;6178530;23;20025;-49
2022/12/02 13:19:41;;;;;;;9.02;5.70;;;;;;;;;;6179410;23;20083;-46
2022/12/02 13:22:20;;;;;;;8.75;4.68;;;;;;;;;;6178871;23;20865;-46
2022/12/02 13:24:55;;;;;;;8.10;5.13;;;;;;;;;;6179237;23;20127;-48
2022/12/02 13:27:22;;;;;;;;;;;;;;;;;;6178086;23;20025;-45
2022/12/02 13:29:50;;;;;;;6.53;4.40;;;;;;;;;;6179153;23;20324;-45
2022/12/02 13:32:24;;;;;;;8.52;5.05;;;;;;;;;;6177201;23;20362;-56
2022/12/02 13:34:51;;;;;;;7.15;5.07;;;;;;;;;;6179402;23;20609;-62
2022/12/02 13:37:25;;;;;;;8.23;5.15;;;;;;;;;;6178271;23;20021;-63
2022/12/02 13:39:52;;;;;;;8.55;5.28;;;;;;;;;;6179090;23;20028;-64
2022/12/02 13:42:19;;;;;;;8.20;5.72;;;;;;;;;;6178978;23;20387;-63
2022/12/02 13:44:53;;;;;;;8.70;5.10;;;;;;;;;;6180691;23;20025;-63
2022/12/02 13:47:21;;;;;;;8.77;5.60;;;;;;;;;;6178687;23;20096;-63
2022/12/02 13:49:55;;;;;;;11.65;5.45;;;;;;;;;;6179709;23;20116;-63
2022/12/02 13:52:22;;;;;;;6.90;4.68;;;;;;;;;;6179065;23;20104;-56
2022/12/02 13:54:49;;;;;;;8.07;4.97;;;;;;;;;;6179001;23;20060;-47
2022/12/02 13:57:23;;;;;;;9.93;5.50;;;;;;;;;;6179261;23;20561;-45
2022/12/02 13:59:50;;;;;;;9.65;5.20;;;;;;;;;;6178163;23;20156;-46
2022/12/02 14:02:24;;;;;;;8.25;5.18;;;;;;;;;;6178129;23;20049;-47
2022/12/02 14:04:51;;;;;;;7.40;5.35;;;;;;;;;;6177580;23;20520;-46
2022/12/02 14:07:18;;;;;;;7.72;5.40;;;;;;;;;;6178636;23;20024;-47
2022/12/02 14:09:53;;;;;;;7.70;5.15;;;;;;;;;;6177848;23;20021;-59
2022/12/02 14:12:20;;;;;;;9.43;5.68;;;;;;;;;;6178686;23;20052;-61
2022/12/02 14:14:54;;;;;;;9.73;5.20;;;;;;;;;;6179521;23;20018;-65
2022/12/02 14:17:21;;;;;;;10.07;5.53;;;;;;;;;;6177782;23;20079;-65
2022/12/02 14:19:48;;;;;;;8.80;5.57;;;;;;;;;;6178990;23;20048;-65
2022/12/02 14:22:28;;;;;;;7.90;5.50;;;;;;;;;;6178616;23;20036;-65
2022/12/02 14:24:57;;;;;;;10.30;5.65;;;;;;;;;;6177153;23;20048;-65
2022/12/02 14:27:31;;;;;;;8.98;5.82;;;;;;;;;;6177953;23;20482;-65
2022/12/02 14:29:58;;;;;;;7.55;5.38;;;;;;;;;;6179659;23;20120;-56
2022/12/02 14:32:25;;;;;;;11.55;6.25;;;;;;;;;;6176815;23;20071;-62
2022/12/02 14:34:59;;;;;;;9.13;6.13;;;;;;;;;;6179644;23;20017;-63
2022/12/02 14:37:26;;;;;;;10.02;6.07;;;;;;;;;;6178466;23;20032;-62
2022/12/02 14:40:03;;;;;;;9.38;5.95;;;;;;;;;;6178368;23;20096;-63
2022/12/02 14:42:30;;;;;;;9.15;6.05;;;;;;;;;;6177792;23;20435;-63
2022/12/02 14:44:57;;;;;;;10.75;6.88;;;;;;;;;;6178575;23;20023;-63
2022/12/02 14:47:31;;;;;;;11.23;6.25;;;;;;;;;;6178071;23;20028;-54
2022/12/02 14:49:58;;;;;;;10.75;6.25;;;;;;;;;;6180425;23;20032;-55
2022/12/02 14:52:32;;;;;;;9.20;5.63;;;;;;;;;;6178020;23;20025;-61
2022/12/02 14:54:59;;;;;;;8.90;5.47;;;;;;;;;;6179631;23;20029;-61
2022/12/02 14:57:26;;;;;;;8.32;5.70;;;;;;;;;;6177527;23;20021;-60
2022/12/02 15:00:00;;;;;;;9.80;5.93;;;;;;;;;;6179591;23;20470;-61